sensor_id;sensor_type;location;lat;lon;timestamp;P1;durP1;ratioP1;P2;durP2;ratioP2
75858;SDS011;64504;51.308;8.620;2023-01-16T00:01:21;3.28;;;1.60;;
75858;SDS011;64504;51.308;8.620;2023-01-16T00:03:49;0.95;;;0.45;;
75858;SDS011;64504;51.308;8.620;2023-01-16T00:06:14;2.05;;;0.95;;
75858;SDS011;64504;51.308;8.620;2023-01-16T00:08:41;0.63;;;0.63;;
75858;SDS011;64504;51.308;8.620;2023-01-16T00:11:08;6.30;;;1.05;;
75858;SDS011;64504;51.308;8.620;2023-01-16T00:13:34;4.20;;;1.33;;
75858;SDS011;64504;51.308;8.620;2023-01-16T00:15:59;4.85;;;1.65;;
75858;SDS011;64504;51.308;8.620;2023-01-16T00:18:25;2.75;;;1.20;;
75858;SDS011;64504;51.308;8.620;2023-01-16T00:20:50;2.53;;;1.27;;
75858;SDS011;64504;51.308;8.620;2023-01-16T00:23:16;4.00;;;1.45;;
75858;SDS011;64504;51.308;8.620;2023-01-16T00:25:41;0.77;;;0.77;;
75858;SDS011;64504;51.308;8.620;2023-01-16T00:28:08;1.90;;;1.23;;
75858;SDS011;64504;51.308;8.620;2023-01-16T00:30:35;1.25;;;1.15;;
75858;SDS011;64504;51.308;8.620;2023-01-16T00:33:00;4.03;;;0.88;;
75858;SDS011;64504;51.308;8.620;2023-01-16T00:35:26;4.32;;;0.70;;
75858;SDS011;64504;51.308;8.620;2023-01-16T00:37:52;2.03;;;0.73;;
75858;SDS011;64504;51.308;8.620;2023-01-16T00:40:18;0.95;;;0.85;;
75858;SDS011;64504;51.308;8.620;2023-01-16T00:42:44;3.85;;;1.15;;
75858;SDS011;64504;51.308;8.620;2023-01-16T00:45:09;1.15;;;0.90;;
75858;SDS011;64504;51.308;8.620;2023-01-16T00:47:35;2.25;;;1.17;;
75858;SDS011;64504;51.308;8.620;2023-01-16T00:50:00;1.17;;;1.02;;
75858;SDS011;64504;51.308;8.620;2023-01-16T00:52:26;4.22;;;1.13;;
75858;SDS011;64504;51.308;8.620;2023-01-16T00:54:53;1.05;;;1.00;;
75858;SDS011;64504;51.308;8.620;2023-01-16T00:57:19;6.18;;;1.13;;
75858;SDS011;64504;51.308;8.620;2023-01-16T00:59:44;1.77;;;1.25;;
75858;SDS011;64504;51.308;8.620;2023-01-16T01:02:10;1.80;;;1.00;;
75858;SDS011;64504;51.308;8.620;2023-01-16T01:04:35;1.10;;;1.00;;
75858;SDS011;64504;51.308;8.620;2023-01-16T01:07:01;3.10;;;0.80;;
75858;SDS011;64504;51.308;8.620;2023-01-16T01:09:27;1.27;;;1.08;;
75858;SDS011;64504;51.308;8.620;2023-01-16T01:11:52;2.20;;;1.55;;
75858;SDS011;64504;51.308;8.620;2023-01-16T01:14:18;1.05;;;0.60;;
75858;SDS011;64504;51.308;8.620;2023-01-16T01:16:43;1.17;;;1.08;;
75858;SDS011;64504;51.308;8.620;2023-01-16T01:19:08;2.92;;;0.70;;
75858;SDS011;64504;51.308;8.620;2023-01-16T01:21:34;1.13;;;1.13;;
75858;SDS011;64504;51.308;8.620;2023-01-16T01:23:59;0.80;;;0.80;;
75858;SDS011;64504;51.308;8.620;2023-01-16T01:26:25;0.75;;;0.75;;
75858;SDS011;64504;51.308;8.620;2023-01-16T01:28:51;1.30;;;0.63;;
75858;SDS011;64504;51.308;8.620;2023-01-16T01:31:19;0.50;;;0.50;;
75858;SDS011;64504;51.308;8.620;2023-01-16T01:33:44;0.85;;;0.85;;
75858;SDS011;64504;51.308;8.620;2023-01-16T01:36:10;0.60;;;0.60;;
75858;SDS011;64504;51.308;8.620;2023-01-16T01:38:35;0.57;;;0.57;;
75858;SDS011;64504;51.308;8.620;2023-01-16T01:41:01;1.05;;;1.00;;
75858;SDS011;64504;51.308;8.620;2023-01-16T01:46:47;1.33;;;0.85;;
75858;SDS011;64504;51.308;8.620;2023-01-16T01:49:16;1.52;;;0.80;;
75858;SDS011;64504;51.308;8.620;2023-01-16T01:51:48;1.33;;;1.13;;
75858;SDS011;64504;51.308;8.620;2023-01-16T01:54:18;6.13;;;1.48;;
75858;SDS011;64504;51.308;8.620;2023-01-16T01:56:48;2.72;;;1.13;;
75858;SDS011;64504;51.308;8.620;2023-01-16T01:59:17;8.23;;;1.23;;
75858;SDS011;64504;51.308;8.620;2023-01-16T02:01:45;0.85;;;0.73;;
75858;SDS011;64504;51.308;8.620;2023-01-16T02:04:18;4.25;;;0.80;;
75858;SDS011;64504;51.308;8.620;2023-01-16T02:06:46;1.38;;;1.20;;
75858;SDS011;64504;51.308;8.620;2023-01-16T02:09:13;1.08;;;0.98;;
75858;SDS011;64504;51.308;8.620;2023-01-16T02:11:42;10.35;;;1.58;;
75858;SDS011;64504;51.308;8.620;2023-01-16T02:14:12;1.70;;;1.58;;
75858;SDS011;64504;51.308;8.620;2023-01-16T02:16:39;1.10;;;1.00;;
75858;SDS011;64504;51.308;8.620;2023-01-16T02:19:43;1.15;;;1.05;;
75858;SDS011;64504;51.308;8.620;2023-01-16T02:22:20;1.30;;;1.20;;
75858;SDS011;64504;51.308;8.620;2023-01-16T02:36:16;1.80;;;0.85;;
75858;SDS011;64504;51.308;8.620;2023-01-16T02:49:44;3.35;;;1.05;;
75858;SDS011;64504;51.308;8.620;2023-01-16T02:52:14;0.93;;;0.93;;
75858;SDS011;64504;51.308;8.620;2023-01-16T02:54:46;9.35;;;0.88;;
75858;SDS011;64504;51.308;8.620;2023-01-16T02:57:18;4.80;;;1.35;;
75858;SDS011;64504;51.308;8.620;2023-01-16T02:59:44;3.63;;;0.95;;
75858;SDS011;64504;51.308;8.620;2023-01-16T03:02:10;0.50;;;0.50;;
75858;SDS011;64504;51.308;8.620;2023-01-16T03:14:39;0.68;;;0.60;;
75858;SDS011;64504;51.308;8.620;2023-01-16T03:20:16;0.35;;;0.35;;
75858;SDS011;64504;51.308;8.620;2023-01-16T03:22:52;5.35;;;0.80;;
75858;SDS011;64504;51.308;8.620;2023-01-16T03:25:41;1.95;;;0.90;;
75858;SDS011;64504;51.308;8.620;2023-01-16T03:28:55;0.30;;;0.30;;
75858;SDS011;64504;51.308;8.620;2023-01-16T03:31:11;0.20;;;0.20;;
75858;SDS011;64504;51.308;8.620;2023-01-16T03:38:55;1.50;;;0.47;;
75858;SDS011;64504;51.308;8.620;2023-01-16T03:41:21;0.30;;;0.30;;
75858;SDS011;64504;51.308;8.620;2023-01-16T03:43:52;1.55;;;0.70;;
75858;SDS011;64504;51.308;8.620;2023-01-16T03:46:28;0.40;;;0.40;;
75858;SDS011;64504;51.308;8.620;2023-01-16T03:48:56;0.50;;;0.50;;
75858;SDS011;64504;51.308;8.620;2023-01-16T03:51:26;1.08;;;1.08;;
75858;SDS011;64504;51.308;8.620;2023-01-16T03:56:31;1.80;;;0.60;;
75858;SDS011;64504;51.308;8.620;2023-01-16T03:59:01;1.35;;;1.25;;
75858;SDS011;64504;51.308;8.620;2023-01-16T04:01:47;0.70;;;0.70;;
75858;SDS011;64504;51.308;8.620;2023-01-16T04:04:19;0.75;;;0.73;;
75858;SDS011;64504;51.308;8.620;2023-01-16T04:06:53;2.50;;;1.38;;
75858;SDS011;64504;51.308;8.620;2023-01-16T04:12:20;2.17;;;1.63;;
75858;SDS011;64504;51.308;8.620;2023-01-16T04:14:48;1.75;;;1.30;;
75858;SDS011;64504;51.308;8.620;2023-01-16T04:17:19;2.38;;;1.40;;
75858;SDS011;64504;51.308;8.620;2023-01-16T04:19:45;7.22;;;1.75;;
75858;SDS011;64504;51.308;8.620;2023-01-16T04:22:17;0.40;;;0.40;;
75858;SDS011;64504;51.308;8.620;2023-01-16T04:24:48;3.17;;;1.63;;
75858;SDS011;64504;51.308;8.620;2023-01-16T04:27:16;2.50;;;1.83;;
75858;SDS011;64504;51.308;8.620;2023-01-16T04:29:42;5.53;;;1.50;;
75858;SDS011;64504;51.308;8.620;2023-01-16T04:32:08;1.98;;;1.42;;
75858;SDS011;64504;51.308;8.620;2023-01-16T04:34:33;1.58;;;1.48;;
75858;SDS011;64504;51.308;8.620;2023-01-16T04:36:59;1.33;;;1.15;;
75858;SDS011;64504;51.308;8.620;2023-01-16T04:39:24;4.03;;;1.27;;
75858;SDS011;64504;51.308;8.620;2023-01-16T04:41:49;1.38;;;1.27;;
75858;SDS011;64504;51.308;8.620;2023-01-16T04:44:15;0.85;;;0.85;;
75858;SDS011;64504;51.308;8.620;2023-01-16T04:46:41;0.80;;;0.80;;
75858;SDS011;64504;51.308;8.620;2023-01-16T04:49:07;0.63;;;0.63;;
75858;SDS011;64504;51.308;8.620;2023-01-16T04:51:33;2.30;;;1.08;;
75858;SDS011;64504;51.308;8.620;2023-01-16T04:54:00;1.02;;;0.98;;
75858;SDS011;64504;51.308;8.620;2023-01-16T04:56:25;0.50;;;0.50;;
75858;SDS011;64504;51.308;8.620;2023-01-16T04:58:51;0.50;;;0.50;;
75858;SDS011;64504;51.308;8.620;2023-01-16T05:01:18;1.48;;;1.02;;
75858;SDS011;64504;51.308;8.620;2023-01-16T05:03:43;1.83;;;1.40;;
75858;SDS011;64504;51.308;8.620;2023-01-16T05:06:09;0.88;;;0.88;;
75858;SDS011;64504;51.308;8.620;2023-01-16T05:08:34;1.10;;;1.00;;
75858;SDS011;64504;51.308;8.620;2023-01-16T05:11:01;1.80;;;1.17;;
75858;SDS011;64504;51.308;8.620;2023-01-16T05:13:27;0.73;;;0.57;;
75858;SDS011;64504;51.308;8.620;2023-01-16T05:15:53;0.60;;;0.60;;
75858;SDS011;64504;51.308;8.620;2023-01-16T05:18:18;6.53;;;1.48;;
75858;SDS011;64504;51.308;8.620;2023-01-16T05:20:44;2.75;;;0.68;;
75858;SDS011;64504;51.308;8.620;2023-01-16T05:23:09;1.08;;;0.82;;
75858;SDS011;64504;51.308;8.620;2023-01-16T05:25:37;2.15;;;1.15;;
75858;SDS011;64504;51.308;8.620;2023-01-16T05:28:03;6.43;;;1.23;;
75858;SDS011;64504;51.308;8.620;2023-01-16T05:30:29;1.08;;;1.08;;
75858;SDS011;64504;51.308;8.620;2023-01-16T05:32:56;1.17;;;1.05;;
75858;SDS011;64504;51.308;8.620;2023-01-16T05:35:21;2.65;;;1.23;;
75858;SDS011;64504;51.308;8.620;2023-01-16T05:37:47;0.55;;;0.55;;
75858;SDS011;64504;51.308;8.620;2023-01-16T05:40:13;2.40;;;1.15;;
75858;SDS011;64504;51.308;8.620;2023-01-16T05:42:41;1.88;;;1.63;;
75858;SDS011;64504;51.308;8.620;2023-01-16T05:45:07;0.63;;;0.63;;
75858;SDS011;64504;51.308;8.620;2023-01-16T05:47:33;2.25;;;1.35;;
75858;SDS011;64504;51.308;8.620;2023-01-16T05:49:58;0.80;;;0.80;;
75858;SDS011;64504;51.308;8.620;2023-01-16T05:52:24;1.08;;;0.68;;
75858;SDS011;64504;51.308;8.620;2023-01-16T05:54:53;0.88;;;0.88;;
75858;SDS011;64504;51.308;8.620;2023-01-16T05:57:19;1.13;;;0.43;;
75858;SDS011;64504;51.308;8.620;2023-01-16T05:59:52;0.60;;;0.60;;
75858;SDS011;64504;51.308;8.620;2023-01-16T06:02:18;1.55;;;1.05;;
75858;SDS011;64504;51.308;8.620;2023-01-16T06:04:44;2.40;;;1.08;;
75858;SDS011;64504;51.308;8.620;2023-01-16T06:07:10;0.85;;;0.85;;
75858;SDS011;64504;51.308;8.620;2023-01-16T06:09:36;0.75;;;0.75;;
75858;SDS011;64504;51.308;8.620;2023-01-16T06:12:02;0.60;;;0.60;;
75858;SDS011;64504;51.308;8.620;2023-01-16T06:14:28;1.02;;;1.02;;
75858;SDS011;64504;51.308;8.620;2023-01-16T06:16:53;0.95;;;0.95;;
75858;SDS011;64504;51.308;8.620;2023-01-16T06:19:19;1.00;;;1.00;;
75858;SDS011;64504;51.308;8.620;2023-01-16T06:21:45;1.00;;;1.00;;
75858;SDS011;64504;51.308;8.620;2023-01-16T06:24:10;0.70;;;0.70;;
75858;SDS011;64504;51.308;8.620;2023-01-16T06:29:11;0.73;;;0.73;;
75858;SDS011;64504;51.308;8.620;2023-01-16T06:31:46;0.35;;;0.35;;
75858;SDS011;64504;51.308;8.620;2023-01-16T06:34:12;0.80;;;0.80;;
75858;SDS011;64504;51.308;8.620;2023-01-16T06:36:37;0.85;;;0.85;;
75858;SDS011;64504;51.308;8.620;2023-01-16T06:39:03;0.55;;;0.55;;
75858;SDS011;64504;51.308;8.620;2023-01-16T06:41:28;1.23;;;1.13;;
75858;SDS011;64504;51.308;8.620;2023-01-16T06:43:55;0.50;;;0.50;;
75858;SDS011;64504;51.308;8.620;2023-01-16T06:46:20;0.68;;;0.68;;
75858;SDS011;64504;51.308;8.620;2023-01-16T06:48:47;0.90;;;0.90;;
75858;SDS011;64504;51.308;8.620;2023-01-16T06:51:12;0.57;;;0.57;;
75858;SDS011;64504;51.308;8.620;2023-01-16T06:53:37;0.73;;;0.73;;
75858;SDS011;64504;51.308;8.620;2023-01-16T06:56:03;0.80;;;0.80;;
75858;SDS011;64504;51.308;8.620;2023-01-16T06:58:29;1.27;;;1.25;;
75858;SDS011;64504;51.308;8.620;2023-01-16T07:00:57;2.08;;;1.05;;
75858;SDS011;64504;51.308;8.620;2023-01-16T07:03:28;1.00;;;0.90;;
75858;SDS011;64504;51.308;8.620;2023-01-16T07:05:54;1.67;;;0.82;;
75858;SDS011;64504;51.308;8.620;2023-01-16T07:08:19;1.23;;;0.82;;
75858;SDS011;64504;51.308;8.620;2023-01-16T07:10:45;1.08;;;0.77;;
75858;SDS011;64504;51.308;8.620;2023-01-16T07:13:10;1.30;;;1.20;;
75858;SDS011;64504;51.308;8.620;2023-01-16T07:15:37;1.73;;;1.52;;
75858;SDS011;64504;51.308;8.620;2023-01-16T07:18:21;1.85;;;1.15;;
75858;SDS011;64504;51.308;8.620;2023-01-16T07:21:09;1.05;;;1.05;;
75858;SDS011;64504;51.308;8.620;2023-01-16T07:24:02;4.55;;;1.33;;
75858;SDS011;64504;51.308;8.620;2023-01-16T07:26:29;1.10;;;1.10;;
75858;SDS011;64504;51.308;8.620;2023-01-16T07:28:55;1.90;;;1.58;;
75858;SDS011;64504;51.308;8.620;2023-01-16T07:31:22;0.77;;;0.77;;
75858;SDS011;64504;51.308;8.620;2023-01-16T07:33:50;1.00;;;1.00;;
75858;SDS011;64504;51.308;8.620;2023-01-16T07:36:16;1.77;;;1.10;;
75858;SDS011;64504;51.308;8.620;2023-01-16T07:38:41;1.30;;;1.20;;
75858;SDS011;64504;51.308;8.620;2023-01-16T07:41:07;1.85;;;1.60;;
75858;SDS011;64504;51.308;8.620;2023-01-16T07:43:32;3.58;;;2.22;;
75858;SDS011;64504;51.308;8.620;2023-01-16T07:45:58;1.83;;;1.70;;
75858;SDS011;64504;51.308;8.620;2023-01-16T07:48:28;4.00;;;3.33;;
75858;SDS011;64504;51.308;8.620;2023-01-16T07:50:56;4.68;;;2.70;;
75858;SDS011;64504;51.308;8.620;2023-01-16T07:53:23;7.38;;;3.67;;
75858;SDS011;64504;51.308;8.620;2023-01-16T07:55:50;4.25;;;3.38;;
75858;SDS011;64504;51.308;8.620;2023-01-16T07:58:18;2.53;;;2.33;;
75858;SDS011;64504;51.308;8.620;2023-01-16T08:00:46;3.92;;;3.63;;
75858;SDS011;64504;51.308;8.620;2023-01-16T08:03:12;5.90;;;4.68;;
75858;SDS011;64504;51.308;8.620;2023-01-16T08:05:39;2.83;;;2.63;;
75858;SDS011;64504;51.308;8.620;2023-01-16T08:08:04;3.63;;;3.33;;
75858;SDS011;64504;51.308;8.620;2023-01-16T08:10:30;8.32;;;4.50;;
75858;SDS011;64504;51.308;8.620;2023-01-16T08:12:56;4.40;;;2.85;;
75858;SDS011;64504;51.308;8.620;2023-01-16T08:15:22;9.38;;;4.45;;
75858;SDS011;64504;51.308;8.620;2023-01-16T08:17:47;7.93;;;4.88;;
75858;SDS011;64504;51.308;8.620;2023-01-16T08:20:12;6.80;;;3.83;;
75858;SDS011;64504;51.308;8.620;2023-01-16T08:22:42;9.98;;;5.13;;
75858;SDS011;64504;51.308;8.620;2023-01-16T08:25:09;6.57;;;3.30;;
75858;SDS011;64504;51.308;8.620;2023-01-16T08:27:35;4.53;;;4.13;;
75858;SDS011;64504;51.308;8.620;2023-01-16T08:30:01;3.80;;;3.47;;
75858;SDS011;64504;51.308;8.620;2023-01-16T08:32:27;13.40;;;5.55;;
75858;SDS011;64504;51.308;8.620;2023-01-16T08:34:52;11.32;;;4.65;;
75858;SDS011;64504;51.308;8.620;2023-01-16T08:37:18;4.20;;;3.80;;
75858;SDS011;64504;51.308;8.620;2023-01-16T08:39:43;7.10;;;3.95;;
75858;SDS011;64504;51.308;8.620;2023-01-16T08:42:09;4.60;;;4.30;;
75858;SDS011;64504;51.308;8.620;2023-01-16T08:44:53;4.35;;;3.08;;
75858;SDS011;64504;51.308;8.620;2023-01-16T08:47:37;4.53;;;4.10;;
75858;SDS011;64504;51.308;8.620;2023-01-16T08:50:22;10.55;;;3.45;;
75858;SDS011;64504;51.308;8.620;2023-01-16T08:53:06;2.95;;;2.67;;
75858;SDS011;64504;51.308;8.620;2023-01-16T08:55:32;8.82;;;3.95;;
75858;SDS011;64504;51.308;8.620;2023-01-16T08:57:58;6.28;;;2.95;;
75858;SDS011;64504;51.308;8.620;2023-01-16T09:00:27;6.63;;;3.63;;
75858;SDS011;64504;51.308;8.620;2023-01-16T09:02:54;3.85;;;3.55;;
75858;SDS011;64504;51.308;8.620;2023-01-16T09:05:24;1.15;;;0.93;;
75858;SDS011;64504;51.308;8.620;2023-01-16T09:07:53;3.35;;;3.05;;
75858;SDS011;64504;51.308;8.620;2023-01-16T09:10:18;6.95;;;2.60;;
75858;SDS011;64504;51.308;8.620;2023-01-16T09:12:45;2.40;;;2.20;;
75858;SDS011;64504;51.308;8.620;2023-01-16T09:15:33;9.15;;;3.60;;
75858;SDS011;64504;51.308;8.620;2023-01-16T09:17:58;1.90;;;1.80;;
75858;SDS011;64504;51.308;8.620;2023-01-16T09:20:23;9.88;;;2.53;;
75858;SDS011;64504;51.308;8.620;2023-01-16T09:22:55;2.85;;;2.45;;
75858;SDS011;64504;51.308;8.620;2023-01-16T09:25:22;2.65;;;2.33;;
75858;SDS011;64504;51.308;8.620;2023-01-16T09:27:48;4.20;;;2.65;;
75858;SDS011;64504;51.308;8.620;2023-01-16T09:30:14;5.20;;;2.15;;
75858;SDS011;64504;51.308;8.620;2023-01-16T09:32:39;6.05;;;2.63;;
75858;SDS011;64504;51.308;8.620;2023-01-16T09:35:05;2.10;;;1.48;;
75858;SDS011;64504;51.308;8.620;2023-01-16T09:37:31;4.47;;;1.70;;
75858;SDS011;64504;51.308;8.620;2023-01-16T09:39:57;2.25;;;1.65;;
75858;SDS011;64504;51.308;8.620;2023-01-16T09:42:31;1.38;;;1.27;;
75858;SDS011;64504;51.308;8.620;2023-01-16T09:45:23;1.25;;;1.10;;
75858;SDS011;64504;51.308;8.620;2023-01-16T09:47:52;1.30;;;1.20;;
75858;SDS011;64504;51.308;8.620;2023-01-16T09:50:24;1.58;;;1.15;;
75858;SDS011;64504;51.308;8.620;2023-01-16T09:52:55;1.45;;;1.35;;
75858;SDS011;64504;51.308;8.620;2023-01-16T09:55:50;2.38;;;1.23;;
75858;SDS011;64504;51.308;8.620;2023-01-16T09:58:36;0.77;;;0.77;;
75858;SDS011;64504;51.308;8.620;2023-01-16T10:03:40;1.45;;;1.20;;
75858;SDS011;64504;51.308;8.620;2023-01-16T10:12:20;0.90;;;0.73;;
75858;SDS011;64504;51.308;8.620;2023-01-16T10:14:57;1.08;;;0.77;;
75858;SDS011;64504;51.308;8.620;2023-01-16T10:25:37;0.40;;;0.40;;
75858;SDS011;64504;51.308;8.620;2023-01-16T10:30:58;0.57;;;0.57;;
75858;SDS011;64504;51.308;8.620;2023-01-16T10:36:00;0.60;;;0.60;;
75858;SDS011;64504;51.308;8.620;2023-01-16T10:38:37;1.08;;;1.08;;
75858;SDS011;64504;51.308;8.620;2023-01-16T10:41:44;0.90;;;0.85;;
75858;SDS011;64504;51.308;8.620;2023-01-16T10:48:00;0.25;;;0.25;;
75858;SDS011;64504;51.308;8.620;2023-01-16T10:50:46;0.68;;;0.68;;
75858;SDS011;64504;51.308;8.620;2023-01-16T10:53:16;0.45;;;0.45;;
75858;SDS011;64504;51.308;8.620;2023-01-16T10:55:44;0.45;;;0.43;;
75858;SDS011;64504;51.308;8.620;2023-01-16T11:00:48;0.70;;;0.70;;
75858;SDS011;64504;51.308;8.620;2023-01-16T11:09:04;0.47;;;0.47;;
75858;SDS011;64504;51.308;8.620;2023-01-16T11:14:55;0.30;;;0.30;;
75858;SDS011;64504;51.308;8.620;2023-01-16T11:17:39;0.30;;;0.30;;
75858;SDS011;64504;51.308;8.620;2023-01-16T11:20:45;0.35;;;0.35;;
75858;SDS011;64504;51.308;8.620;2023-01-16T11:26:02;0.20;;;0.20;;
75858;SDS011;64504;51.308;8.620;2023-01-16T11:28:35;0.68;;;0.50;;
75858;SDS011;64504;51.308;8.620;2023-01-16T11:31:10;0.50;;;0.50;;
75858;SDS011;64504;51.308;8.620;2023-01-16T11:33:46;0.50;;;0.50;;
75858;SDS011;64504;51.308;8.620;2023-01-16T11:36:19;2.03;;;1.85;;
75858;SDS011;64504;51.308;8.620;2023-01-16T11:38:45;6.78;;;0.88;;
75858;SDS011;64504;51.308;8.620;2023-01-16T11:41:11;0.50;;;0.50;;
75858;SDS011;64504;51.308;8.620;2023-01-16T11:43:37;4.78;;;1.33;;
75858;SDS011;64504;51.308;8.620;2023-01-16T11:46:41;0.30;;;0.30;;
75858;SDS011;64504;51.308;8.620;2023-01-16T11:49:17;0.30;;;0.30;;
75858;SDS011;64504;51.308;8.620;2023-01-16T11:51:44;0.40;;;0.40;;
75858;SDS011;64504;51.308;8.620;2023-01-16T11:54:13;0.30;;;0.30;;
75858;SDS011;64504;51.308;8.620;2023-01-16T12:10:57;0.65;;;0.65;;
75858;SDS011;64504;51.308;8.620;2023-01-16T12:16:41;0.50;;;0.50;;
75858;SDS011;64504;51.308;8.620;2023-01-16T12:25:05;0.47;;;0.47;;
75858;SDS011;64504;51.308;8.620;2023-01-16T12:27:46;0.60;;;0.60;;
75858;SDS011;64504;51.308;8.620;2023-01-16T12:47:28;1.00;;;0.40;;
75858;SDS011;64504;51.308;8.620;2023-01-16T12:58:27;0.38;;;0.38;;
75858;SDS011;64504;51.308;8.620;2023-01-16T13:03:39;0.55;;;0.50;;
75858;SDS011;64504;51.308;8.620;2023-01-16T13:06:10;0.43;;;0.43;;
75858;SDS011;64504;51.308;8.620;2023-01-16T13:08:44;0.73;;;0.73;;
75858;SDS011;64504;51.308;8.620;2023-01-16T13:11:19;0.30;;;0.30;;
75858;SDS011;64504;51.308;8.620;2023-01-16T13:14:06;0.47;;;0.47;;
75858;SDS011;64504;51.308;8.620;2023-01-16T13:22:05;0.30;;;0.30;;
75858;SDS011;64504;51.308;8.620;2023-01-16T13:24:33;2.15;;;0.50;;
75858;SDS011;64504;51.308;8.620;2023-01-16T13:27:04;0.63;;;0.60;;
75858;SDS011;64504;51.308;8.620;2023-01-16T13:29:41;0.77;;;0.77;;
75858;SDS011;64504;51.308;8.620;2023-01-16T13:32:29;0.67;;;0.63;;
75858;SDS011;64504;51.308;8.620;2023-01-16T13:34:59;0.40;;;0.40;;
75858;SDS011;64504;51.308;8.620;2023-01-16T13:40:31;0.32;;;0.32;;
75858;SDS011;64504;51.308;8.620;2023-01-16T13:43:06;0.80;;;0.68;;
75858;SDS011;64504;51.308;8.620;2023-01-16T13:45:53;0.32;;;0.32;;
75858;SDS011;64504;51.308;8.620;2023-01-16T13:48:26;0.43;;;0.43;;
75858;SDS011;64504;51.308;8.620;2023-01-16T13:50:58;0.50;;;0.50;;
75858;SDS011;64504;51.308;8.620;2023-01-16T13:53:24;0.80;;;0.80;;
75858;SDS011;64504;51.308;8.620;2023-01-16T13:55:59;0.80;;;0.80;;
75858;SDS011;64504;51.308;8.620;2023-01-16T13:58:32;0.75;;;0.70;;
75858;SDS011;64504;51.308;8.620;2023-01-16T14:01:06;0.98;;;0.95;;
75858;SDS011;64504;51.308;8.620;2023-01-16T14:06:59;1.15;;;1.15;;
75858;SDS011;64504;51.308;8.620;2023-01-16T14:15:48;1.65;;;1.55;;
75858;SDS011;64504;51.308;8.620;2023-01-16T14:21:39;2.67;;;2.47;;
75858;SDS011;64504;51.308;8.620;2023-01-16T14:24:28;1.70;;;1.60;;
75858;SDS011;64504;51.308;8.620;2023-01-16T14:26:56;1.60;;;1.50;;
75858;SDS011;64504;51.308;8.620;2023-01-16T14:34:37;0.82;;;0.82;;
75858;SDS011;64504;51.308;8.620;2023-01-16T14:37:17;1.13;;;1.00;;
75858;SDS011;64504;51.308;8.620;2023-01-16T14:39:47;2.05;;;1.27;;
75858;SDS011;64504;51.308;8.620;2023-01-16T14:42:18;2.17;;;1.92;;
75858;SDS011;64504;51.308;8.620;2023-01-16T14:45:13;1.88;;;1.77;;
75858;SDS011;64504;51.308;8.620;2023-01-16T14:48:08;0.80;;;0.80;;
75858;SDS011;64504;51.308;8.620;2023-01-16T14:51:00;2.35;;;1.92;;
75858;SDS011;64504;51.308;8.620;2023-01-16T14:56:52;1.27;;;0.95;;
75858;SDS011;64504;51.308;8.620;2023-01-16T14:59:30;1.05;;;1.05;;
75858;SDS011;64504;51.308;8.620;2023-01-16T15:02:00;0.80;;;0.80;;
75858;SDS011;64504;51.308;8.620;2023-01-16T15:07:15;1.15;;;1.08;;
75858;SDS011;64504;51.308;8.620;2023-01-16T15:09:41;1.13;;;1.13;;
75858;SDS011;64504;51.308;8.620;2023-01-16T15:12:16;1.30;;;1.23;;
75858;SDS011;64504;51.308;8.620;2023-01-16T15:14:54;0.82;;;0.82;;
75858;SDS011;64504;51.308;8.620;2023-01-16T15:17:37;1.27;;;1.27;;
75858;SDS011;64504;51.308;8.620;2023-01-16T15:20:27;2.58;;;2.47;;
75858;SDS011;64504;51.308;8.620;2023-01-16T15:23:18;2.00;;;1.52;;
75858;SDS011;64504;51.308;8.620;2023-01-16T15:25:53;1.65;;;1.55;;
75858;SDS011;64504;51.308;8.620;2023-01-16T15:31:13;1.38;;;1.23;;
75858;SDS011;64504;51.308;8.620;2023-01-16T15:33:44;1.98;;;1.08;;
75858;SDS011;64504;51.308;8.620;2023-01-16T15:36:15;1.00;;;1.00;;
75858;SDS011;64504;51.308;8.620;2023-01-16T15:41:32;1.77;;;1.48;;
75858;SDS011;64504;51.308;8.620;2023-01-16T15:44:20;1.20;;;1.10;;
75858;SDS011;64504;51.308;8.620;2023-01-16T15:52:37;1.77;;;1.23;;
75858;SDS011;64504;51.308;8.620;2023-01-16T15:55:08;1.85;;;1.75;;
75858;SDS011;64504;51.308;8.620;2023-01-16T15:57:59;1.23;;;1.13;;
75858;SDS011;64504;51.308;8.620;2023-01-16T16:00:30;2.28;;;1.55;;
75858;SDS011;64504;51.308;8.620;2023-01-16T16:03:04;5.85;;;1.30;;
75858;SDS011;64504;51.308;8.620;2023-01-16T16:05:36;1.50;;;1.40;;
75858;SDS011;64504;51.308;8.620;2023-01-16T16:08:03;3.88;;;1.40;;
75858;SDS011;64504;51.308;8.620;2023-01-16T16:10:29;3.53;;;1.33;;
75858;SDS011;64504;51.308;8.620;2023-01-16T16:13:16;1.23;;;1.17;;
75858;SDS011;64504;51.308;8.620;2023-01-16T16:15:59;1.88;;;1.70;;
75858;SDS011;64504;51.308;8.620;2023-01-16T16:18:56;1.23;;;1.13;;
75858;SDS011;64504;51.308;8.620;2023-01-16T16:21:23;1.80;;;1.70;;
75858;SDS011;64504;51.308;8.620;2023-01-16T16:23:55;1.60;;;1.38;;
75858;SDS011;64504;51.308;8.620;2023-01-16T16:26:22;0.65;;;0.65;;
75858;SDS011;64504;51.308;8.620;2023-01-16T16:28:48;3.30;;;1.70;;
75858;SDS011;64504;51.308;8.620;2023-01-16T16:31:15;1.60;;;1.50;;
75858;SDS011;64504;51.308;8.620;2023-01-16T16:33:44;1.33;;;1.23;;
75858;SDS011;64504;51.308;8.620;2023-01-16T16:36:18;2.63;;;2.03;;
75858;SDS011;64504;51.308;8.620;2023-01-16T16:38:48;1.52;;;1.42;;
75858;SDS011;64504;51.308;8.620;2023-01-16T16:43:45;2.75;;;1.48;;
75858;SDS011;64504;51.308;8.620;2023-01-16T16:48:49;1.85;;;1.63;;
75858;SDS011;64504;51.308;8.620;2023-01-16T16:51:21;1.38;;;1.27;;
75858;SDS011;64504;51.308;8.620;2023-01-16T16:53:52;0.95;;;0.95;;
75858;SDS011;64504;51.308;8.620;2023-01-16T16:56:20;0.75;;;0.75;;
75858;SDS011;64504;51.308;8.620;2023-01-16T16:58:49;1.58;;;1.45;;
75858;SDS011;64504;51.308;8.620;2023-01-16T17:01:16;0.90;;;0.90;;
75858;SDS011;64504;51.308;8.620;2023-01-16T17:03:44;0.85;;;0.80;;
75858;SDS011;64504;51.308;8.620;2023-01-16T17:06:17;0.98;;;0.98;;
75858;SDS011;64504;51.308;8.620;2023-01-16T17:08:44;1.48;;;1.38;;
75858;SDS011;64504;51.308;8.620;2023-01-16T17:11:13;1.65;;;1.17;;
75858;SDS011;64504;51.308;8.620;2023-01-16T17:13:39;1.42;;;1.33;;
75858;SDS011;64504;51.308;8.620;2023-01-16T17:16:05;1.10;;;1.05;;
75858;SDS011;64504;51.308;8.620;2023-01-16T17:18:57;1.02;;;0.90;;
75858;SDS011;64504;51.308;8.620;2023-01-16T17:21:25;0.55;;;0.55;;
75858;SDS011;64504;51.308;8.620;2023-01-16T17:23:51;0.90;;;0.90;;
75858;SDS011;64504;51.308;8.620;2023-01-16T17:26:16;0.60;;;0.60;;
75858;SDS011;64504;51.308;8.620;2023-01-16T17:28:42;0.60;;;0.60;;
75858;SDS011;64504;51.308;8.620;2023-01-16T17:31:18;0.63;;;0.63;;
75858;SDS011;64504;51.308;8.620;2023-01-16T17:33:44;0.70;;;0.63;;
75858;SDS011;64504;51.308;8.620;2023-01-16T17:36:19;0.52;;;0.52;;
75858;SDS011;64504;51.308;8.620;2023-01-16T17:38:46;0.20;;;0.20;;
75858;SDS011;64504;51.308;8.620;2023-01-16T17:41:16;2.30;;;0.88;;
75858;SDS011;64504;51.308;8.620;2023-01-16T17:43:46;0.30;;;0.30;;
75858;SDS011;64504;51.308;8.620;2023-01-16T17:46:30;0.70;;;0.50;;
75858;SDS011;64504;51.308;8.620;2023-01-16T17:48:56;0.40;;;0.40;;
75858;SDS011;64504;51.308;8.620;2023-01-16T17:51:22;0.43;;;0.43;;
75858;SDS011;64504;51.308;8.620;2023-01-16T17:53:50;0.30;;;0.30;;
75858;SDS011;64504;51.308;8.620;2023-01-16T17:56:18;0.57;;;0.57;;
75858;SDS011;64504;51.308;8.620;2023-01-16T17:58:46;0.90;;;0.65;;
75858;SDS011;64504;51.308;8.620;2023-01-16T18:01:13;0.60;;;0.60;;
75858;SDS011;64504;51.308;8.620;2023-01-16T18:03:47;0.30;;;0.30;;
75858;SDS011;64504;51.308;8.620;2023-01-16T18:06:38;0.40;;;0.40;;
75858;SDS011;64504;51.308;8.620;2023-01-16T18:09:05;0.50;;;0.50;;
75858;SDS011;64504;51.308;8.620;2023-01-16T18:11:33;1.10;;;0.85;;
75858;SDS011;64504;51.308;8.620;2023-01-16T18:14:17;0.30;;;0.30;;
75858;SDS011;64504;51.308;8.620;2023-01-16T18:17:02;0.40;;;0.40;;
75858;SDS011;64504;51.308;8.620;2023-01-16T18:19:46;1.05;;;0.68;;
75858;SDS011;64504;51.308;8.620;2023-01-16T18:22:13;0.45;;;0.45;;